Date,TemperatureHighF,TemperatureAvgF,TemperatureLowF,DewpointHighF,DewpointAvgF,DewpointLowF,HumidityHigh,HumidityAvg,HumidityLow,PressureMaxIn,PressureMinIn,WindSpeedMaxMPH,WindSpeedAvgMPH,GustSpeedMaxMPH,PrecipitationSumIn
2013-5-1,66,58,45,28,8,-18,42,16,5,30.27,29.86,38,9,38,0.00
2013-5-2,62,49,31,15,1,-7,38,15,7,30.44,30.27,18,5,27,0.00
2013-5-3,71,51,30,11,3,-11,37,16,4,30.33,29.99,14,5,14,0.00
2013-5-4,76,58,34,14,6,-5,37,15,4,30.06,29.84,19,7,35,0.00
2013-5-5,75,62,53,27,15,2,29,16,9,30.08,29.94,30,9,38,0.00
2013-5-6,61,54,46,45,36,24,92,52,28,30.10,29.99,22,6,22,0.04
2013-5-7,73,57,42,43,29,3,92,45,7,30.11,29.91,25,6,25,0.00
2013-5-8,61,53,43,45,31,23,92,45,25,30.10,29.99,73,6,73,0.03
2013-5-9,65,50,36,41,32,27,87,53,26,30.18,30.06,23,5,24,0.00
2013-5-10,72,55,38,37,33,25,89,48,19,30.30,30.10,30,6,30,0.00
2013-5-11,76,59,40,37,29,15,81,39,11,30.37,30.20,23,5,23,0.00
2013-5-12,79,63,44,35,30,22,66,33,13,30.36,30.12,20,6,21,0.00
2013-5-13,86,68,46,34,27,16,58,26,8,30.29,30.07,17,5,17,0.00
2013-5-14,88,70,52,37,30,17,54,27,8,30.15,29.94,28,7,29,0.00
2013-5-15,85,72,55,40,27,6,53,23,7,30.06,29.86,28,6,28,0.00
2013-5-16,85,68,49,26,16,6,32,15,6,30.07,29.85,24,4,27,0.00
2013-5-17,82,67,47,24,14,-7,37,16,3,30.08,29.88,27,7,27,0.00
2013-5-18,76,65,56,28,23,16,33,22,11,30.05,29.91,22,6,34,0.00
2013-5-19,70,60,47,32,26,11,53,29,11,30.04,29.90,37,8,37,0.00
2013-5-20,68,55,46,44,31,25,82,42,21,30.08,29.96,24,6,24,0.08
2013-5-21,73,59,38,38,29,19,91,40,13,30.14,29.92,17,5,26,0.00
2013-5-22,84,66,43,32,20,8,58,22,6,30.01,29.79,20,5,20,0.00
2013-5-23,87,70,48,26,16,2,40,16,4,30.02,29.82,34,8,34,0.00
2013-5-24,85,68,49,25,17,5,39,16,5,30.12,29.94,27,5,27,0.00
2013-5-25,87,68,45,24,17,6,40,17,5,30.14,29.91,22,5,22,0.00
2013-5-26,83,68,51,25,14,3,27,14,5,30.13,29.92,20,5,21,0.00
2013-5-27,81,66,49,21,12,4,26,13,6,30.08,29.75,25,5,26,0.00
2013-5-28,79,65,45,37,18,5,39,19,6,29.95,29.72,28,6,28,0.00
2013-5-29,72,62,48,44,29,11,77,34,11,29.90,29.74,35,8,35,0.00
2013-5-30,76,64,46,32,22,12,51,23,9,29.98,29.85,30,6,35,0.00
2013-5-31,76,64,43,29,17,2,47,20,6,30.10,29.94,32,6,36,0.00